Time;durP1;ratioP1;P1;durP2;ratioP2;P2;SDS_P1;SDS_P2;PMS_P1;PMS_P2;Temp;Humidity;BMP_temperature;BMP_pressure;BME280_temperature;BME280_humidity;BME280_pressure;Samples;Min_cycle;Max_cycle;Signal;HPM_P1;HPM_P2
2022/06/18 00:02:12;;;;;;;1.62;1.30;;;21.10;49.90;;;;;;920368;152;27360;-73
2022/06/18 00:04:39;;;;;;;1.65;1.55;;;21.10;50.00;;;;;;920518;153;27385;-73
2022/06/18 00:07:06;;;;;;;2.70;1.70;;;21.00;50.20;;;;;;922152;152;27363;-73
2022/06/18 00:09:33;;;;;;;5.03;1.30;;;21.00;50.30;;;;;;919507;152;27437;-73
2022/06/18 00:14:43;;;;;;;1.70;1.57;;;20.90;50.50;;;;;;924592;152;27394;-73
2022/06/18 00:17:13;;;;;;;2.65;2.00;;;20.90;50.50;;;;;;921943;153;27336;-73
2022/06/18 00:19:40;;;;;;;2.05;1.85;;;20.80;50.60;;;;;;921242;153;27338;-74
2022/06/18 00:22:06;;;;;;;2.08;1.87;;;20.80;51.00;;;;;;923783;153;27311;-73
2022/06/18 00:24:33;;;;;;;1.65;1.55;;;20.80;51.00;;;;;;923007;152;27265;-73
2022/06/18 00:26:59;;;;;;;5.10;1.90;;;20.80;51.10;;;;;;921580;150;27232;-73
2022/06/18 00:29:26;;;;;;;3.10;1.95;;;20.70;51.20;;;;;;921403;152;27391;-73
2022/06/18 00:31:53;;;;;;;3.52;2.33;;;20.70;51.30;;;;;;919652;153;27388;-73
2022/06/18 00:34:19;;;;;;;3.27;2.83;;;20.60;51.30;;;;;;920593;152;27416;-73
2022/06/18 00:36:46;;;;;;;3.02;2.37;;;20.60;51.50;;;;;;918825;153;27303;-73
2022/06/18 00:39:12;;;;;;;2.40;2.20;;;20.60;51.50;;;;;;922263;152;27408;-74
2022/06/18 00:41:42;;;;;;;1.87;1.77;;;20.50;51.60;;;;;;921243;153;27292;-73
2022/06/18 00:44:05;;;;;;;2.10;1.90;;;20.50;51.70;;;;;;918823;152;27419;-73
2022/06/18 00:46:38;;;;;;;2.12;1.92;;;20.40;51.80;;;;;;918191;153;27314;-73
2022/06/18 00:49:07;;;;;;;1.80;1.70;;;20.40;52.00;;;;;;916735;150;27331;-73
2022/06/18 00:51:52;;;;;;;1.90;1.80;;;20.40;52.20;;;;;;913905;154;27409;-73
2022/06/18 00:54:19;;;;;;;1.80;1.70;;;20.30;52.20;;;;;;916122;154;27279;-73
2022/06/18 00:56:48;;;;;;;1.92;1.82;;;20.30;52.20;;;;;;922248;150;27397;-73
2022/06/18 00:59:15;;;;;;;1.98;1.87;;;20.20;52.40;;;;;;915218;151;27297;-73
2022/06/18 01:01:41;;;;;;;2.08;1.90;;;20.20;52.50;;;;;;917204;153;27391;-73
2022/06/18 01:04:23;;;;;;;2.02;1.92;;;20.10;52.70;;;;;;917880;153;27474;-73
2022/06/18 01:06:49;;;;;;;2.35;1.85;;;20.10;52.80;;;;;;917456;153;27359;-73
2022/06/18 01:09:16;;;;;;;1.82;1.72;;;20.00;52.80;;;;;;916305;153;27322;-74
2022/06/18 01:11:42;;;;;;;2.00;1.90;;;20.00;53.00;;;;;;917321;153;27738;-73
2022/06/18 01:14:09;;;;;;;2.10;1.90;;;20.00;53.10;;;;;;916878;150;28698;-73
2022/06/18 01:16:36;;;;;;;1.70;1.60;;;19.90;53.20;;;;;;896758;156;27418;-73
2022/06/18 01:19:02;;;;;;;2.08;1.98;;;19.90;53.40;;;;;;900093;153;27399;-73
2022/06/18 01:21:35;;;;;;;1.77;1.67;;;19.80;53.50;;;;;;922060;151;27225;-73
2022/06/18 01:24:16;;;;;;;2.02;1.90;;;19.80;53.60;;;;;;921945;150;27660;-72
2022/06/18 01:26:43;;;;;;;1.80;1.70;;;19.80;53.60;;;;;;894958;156;27432;-73
2022/06/18 01:29:09;;;;;;;1.97;1.87;;;19.70;53.70;;;;;;903986;156;27415;-73
2022/06/18 01:31:36;;;;;;;3.15;1.77;;;19.70;54.00;;;;;;935580;151;27323;-73
2022/06/18 01:34:02;;;;;;;1.98;1.80;;;19.70;54.00;;;;;;931959;151;27464;-73
2022/06/18 01:36:29;;;;;;;1.70;1.60;;;19.60;54.10;;;;;;933789;151;27469;-72
2022/06/18 01:38:56;;;;;;;1.95;1.80;;;19.60;54.20;;;;;;936499;151;27693;-73
2022/06/18 01:44:13;;;;;;;1.82;1.72;;;19.50;54.40;;;;;;932269;151;27546;-73
2022/06/18 01:46:40;;;;;;;2.10;2.00;;;19.50;53.80;;;;;;924890;150;27313;-73
2022/06/18 01:49:06;;;;;;;2.33;1.95;;;19.50;54.50;;;;;;932556;151;27379;-73
2022/06/18 01:51:33;;;;;;;1.77;1.55;;;19.40;54.70;;;;;;932062;151;27377;-73
2022/06/18 01:54:06;;;;;;;1.55;1.37;;;19.40;54.90;;;;;;933583;151;27905;-73
2022/06/18 01:56:38;;;;;;;1.62;1.52;;;19.40;54.90;;;;;;925293;152;27241;-73
2022/06/18 01:59:05;;;;;;;1.87;1.73;;;19.40;55.00;;;;;;921007;153;27275;-73
2022/06/18 02:01:31;;;;;;;1.95;1.67;;;19.40;55.00;;;;;;922424;152;27318;-73
2022/06/18 02:03:58;;;;;;;1.60;1.50;;;19.30;55.10;;;;;;922627;153;27386;-73
2022/06/18 02:06:24;;;;;;;1.77;1.67;;;19.30;55.20;;;;;;926893;153;27412;-73
2022/06/18 02:08:51;;;;;;;3.72;1.80;;;19.30;55.40;;;;;;926663;153;27435;-74
2022/06/18 02:11:18;;;;;;;2.02;1.90;;;19.20;55.30;;;;;;923505;150;27301;-74
2022/06/18 02:13:44;;;;;;;2.00;1.90;;;19.20;55.50;;;;;;924754;152;27356;-74
2022/06/18 02:16:11;;;;;;;2.00;1.90;;;19.20;55.70;;;;;;923104;153;27238;-73
2022/06/18 02:18:38;;;;;;;1.87;1.77;;;19.10;55.80;;;;;;922421;153;27838;-74
2022/06/18 02:21:05;;;;;;;2.22;1.80;;;19.10;56.00;;;;;;925587;153;27405;-74
2022/06/18 02:23:31;;;;;;;2.00;1.90;;;19.10;56.00;;;;;;924959;153;27324;-74
2022/06/18 02:25:57;;;;;;;3.43;2.53;;;19.00;56.10;;;;;;923215;150;27368;-74
2022/06/18 02:28:30;;;;;;;1.77;1.67;;;19.00;56.30;;;;;;923014;153;27288;-74
2022/06/18 02:30:56;;;;;;;2.92;2.08;;;19.00;56.50;;;;;;923780;152;27355;-74
2022/06/18 02:33:31;;;;;;;2.27;2.08;;;18.90;56.40;;;;;;924942;153;27428;-74
2022/06/18 02:35:58;;;;;;;2.05;1.72;;;18.90;56.50;;;;;;925399;153;27279;-74
2022/06/18 02:38:25;;;;;;;3.77;1.90;;;18.90;56.50;;;;;;927702;153;27242;-74
2022/06/18 02:40:51;;;;;;;2.00;1.90;;;18.80;56.60;;;;;;926494;152;27336;-74
2022/06/18 02:43:18;;;;;;;1.67;1.57;;;18.80;56.80;;;;;;926679;153;27312;-74
2022/06/18 02:45:44;;;;;;;1.65;1.55;;;18.70;56.80;;;;;;922153;153;27461;-73
2022/06/18 02:48:11;;;;;;;1.90;1.80;;;18.70;56.90;;;;;;921740;153;27249;-74
2022/06/18 02:50:38;;;;;;;1.80;1.70;;;18.60;57.10;;;;;;923340;152;27245;-74
2022/06/18 02:53:04;;;;;;;1.77;1.67;;;18.60;57.20;;;;;;920601;152;27373;-73
2022/06/18 02:55:33;;;;;;;7.03;2.20;;;18.60;57.40;;;;;;922917;150;27342;-74
2022/06/18 02:58:12;;;;;;;2.47;2.27;;;18.50;57.40;;;;;;923883;153;27261;-73
2022/06/18 03:00:39;;;;;;;6.47;2.00;;;18.50;57.50;;;;;;928246;153;27265;-74
2022/06/18 03:03:08;;;;;;;1.90;1.80;;;18.40;56.90;;;;;;926700;152;27799;-73
2022/06/18 03:05:35;;;;;;;3.43;2.03;;;18.40;57.60;;;;;;922552;151;27374;-74
2022/06/18 03:08:01;;;;;;;1.93;1.83;;;18.30;57.80;;;;;;928514;152;27352;-74
2022/06/18 03:13:12;;;;;;;1.80;1.70;;;18.30;58.10;;;;;;928302;152;27250;-74
2022/06/18 03:15:39;;;;;;;1.90;1.80;;;18.20;58.00;;;;;;921674;152;27253;-73
2022/06/18 03:18:06;;;;;;;1.80;1.70;;;18.20;58.10;;;;;;924608;153;27275;-73
2022/06/18 03:20:41;;;;;;;3.23;1.93;;;18.20;58.70;;;;;;924278;150;27390;-74
2022/06/18 03:23:08;;;;;;;1.70;1.60;;;18.20;58.30;;;;;;885685;155;27541;-73
2022/06/18 03:25:34;;;;;;;1.93;1.83;;;18.10;58.30;;;;;;899696;155;27384;-74
2022/06/18 03:28:01;;;;;;;2.30;2.10;;;18.10;58.50;;;;;;922152;153;27229;-73
2022/06/18 03:30:28;;;;;;;2.27;1.87;;;18.10;58.60;;;;;;926567;153;27292;-73
2022/06/18 03:32:54;;;;;;;2.07;1.97;;;18.10;58.80;;;;;;925582;152;27316;-74
2022/06/18 03:35:21;;;;;;;2.57;2.37;;;18.10;58.80;;;;;;924138;153;27324;-74
2022/06/18 03:37:47;;;;;;;1.70;1.60;;;18.10;58.90;;;;;;923005;152;27364;-73
2022/06/18 03:40:14;;;;;;;2.08;1.87;;;18.10;58.90;;;;;;923735;153;27358;-74
2022/06/18 03:42:41;;;;;;;2.23;1.73;;;18.10;58.90;;;;;;921832;153;27242;-74
2022/06/18 03:45:07;;;;;;;1.87;1.60;;;18.20;59.00;;;;;;919401;150;27385;-74
2022/06/18 03:47:34;;;;;;;1.90;1.80;;;18.20;59.00;;;;;;923852;152;27308;-74
2022/06/18 03:50:00;;;;;;;1.73;1.63;;;18.30;59.10;;;;;;920411;153;27438;-74
2022/06/18 03:52:27;;;;;;;2.00;1.77;;;18.30;59.10;;;;;;920813;153;27257;-74
2022/06/18 03:54:54;;;;;;;1.80;1.70;;;18.40;59.10;;;;;;922329;152;27310;-74
2022/06/18 03:57:20;;;;;;;1.90;1.80;;;18.50;59.00;;;;;;920816;152;27387;-74
2022/06/18 03:59:47;;;;;;;2.13;1.53;;;18.60;59.00;;;;;;922728;153;27309;-74
2022/06/18 04:02:13;;;;;;;2.23;2.03;;;18.60;58.90;;;;;;924620;150;27432;-74
2022/06/18 04:04:40;;;;;;;1.67;1.57;;;18.70;58.90;;;;;;924394;152;27286;-74
2022/06/18 04:07:06;;;;;;;1.80;1.70;;;18.80;58.90;;;;;;923185;153;27350;-74
2022/06/18 04:09:35;;;;;;;2.10;2.00;;;18.90;58.90;;;;;;924460;153;27310;-74
2022/06/18 04:12:00;;;;;;;2.00;1.80;;;19.00;58.80;;;;;;922668;152;27331;-74
2022/06/18 04:14:26;;;;;;;1.85;1.75;;;19.10;58.80;;;;;;924220;153;27297;-74
2022/06/18 04:16:53;;;;;;;1.90;1.80;;;19.20;58.90;;;;;;925904;152;28418;-74
2022/06/18 04:19:19;;;;;;;2.37;1.50;;;19.40;58.90;;;;;;923741;150;27346;-74
2022/06/18 04:21:46;;;;;;;2.15;1.95;;;19.50;58.80;;;;;;924058;152;28204;-74
2022/06/18 04:24:13;;;;;;;1.60;1.50;;;19.60;58.80;;;;;;919507;152;28102;-74
2022/06/18 04:26:39;;;;;;;1.70;1.60;;;19.70;58.60;;;;;;924668;152;27859;-74
2022/06/18 04:29:06;;;;;;;1.95;1.85;;;19.90;58.60;;;;;;923324;153;28192;-74
2022/06/18 04:31:32;;;;;;;1.72;1.62;;;20.00;58.50;;;;;;924319;153;27292;-74
2022/06/18 04:33:59;;;;;;;2.02;1.90;;;20.10;58.50;;;;;;922104;153;27314;-74
2022/06/18 04:36:29;;;;;;;1.72;1.62;;;20.30;58.40;;;;;;924199;152;27341;-74
2022/06/18 04:38:55;;;;;;;2.00;1.90;;;20.40;58.30;;;;;;923253;152;27462;-74
2022/06/18 04:41:22;;;;;;;2.00;1.90;;;20.60;58.30;;;;;;922769;153;27337;-74
2022/06/18 04:43:48;;;;;;;2.20;2.00;;;20.80;58.20;;;;;;922646;153;27299;-75
2022/06/18 04:46:15;;;;;;;2.27;2.15;;;21.00;58.20;;;;;;924379;151;27334;-74
2022/06/18 04:48:41;;;;;;;1.82;1.72;;;21.10;58.00;;;;;;919295;154;27355;-74
2022/06/18 04:51:08;;;;;;;2.08;1.98;;;21.30;57.90;;;;;;920143;153;27291;-74
2022/06/18 04:53:35;;;;;;;2.10;1.90;;;21.60;57.90;;;;;;922167;153;27719;-75
2022/06/18 04:56:01;;;;;;;1.87;1.77;;;21.90;58.00;;;;;;918978;154;28363;-75
2022/06/18 04:58:28;;;;;;;2.25;1.70;;;22.20;58.20;;;;;;918381;154;27303;-75
2022/06/18 05:00:54;;;;;;;2.17;2.00;;;22.60;58.10;;;;;;918089;153;27284;-74
2022/06/18 05:03:21;;;;;;;2.12;1.77;;;23.10;58.00;;;;;;917886;153;27394;-75
2022/06/18 05:05:48;;;;;;;2.02;1.92;;;23.60;57.70;;;;;;915697;153;27287;-74
2022/06/18 05:08:14;;;;;;;1.72;1.62;;;24.10;57.20;;;;;;918578;152;27319;-75
2022/06/18 05:10:41;;;;;;;2.20;2.00;;;24.70;56.70;;;;;;917862;153;27384;-75
2022/06/18 05:13:07;;;;;;;2.12;1.92;;;25.30;56.10;;;;;;920806;153;27607;-74
2022/06/18 05:15:34;;;;;;;1.92;1.60;;;25.90;55.60;;;;;;920744;153;27656;-75
2022/06/18 05:18:00;;;;;;;1.90;1.77;;;26.50;54.90;;;;;;920211;153;27289;-74
2022/06/18 05:20:27;;;;;;;1.65;1.55;;;27.00;54.20;;;;;;918226;154;27283;-75
2022/06/18 05:22:54;;;;;;;2.22;2.02;;;27.60;53.60;;;;;;916594;150;27316;-75
2022/06/18 05:25:20;;;;;;;2.40;1.67;;;28.10;52.80;;;;;;917507;154;27243;-75
2022/06/18 05:27:47;;;;;;;1.72;1.62;;;28.60;52.10;;;;;;917155;154;27394;-75
2022/06/18 05:30:13;;;;;;;1.67;1.57;;;29.10;51.40;;;;;;920016;153;27235;-75
2022/06/18 05:32:40;;;;;;;1.75;1.65;;;29.60;50.70;;;;;;918306;154;27418;-75
2022/06/18 05:35:07;;;;;;;1.50;1.40;;;30.10;50.00;;;;;;917456;153;27411;-75
2022/06/18 05:37:33;;;;;;;1.67;1.57;;;30.50;49.40;;;;;;921192;153;27379;-75
2022/06/18 05:40:00;;;;;;;1.50;1.40;;;30.90;48.80;;;;;;917345;154;27278;-76
2022/06/18 05:42:26;;;;;;;1.45;1.35;;;31.40;48.30;;;;;;917239;154;27229;-75
2022/06/18 05:44:54;;;;;;;1.50;1.40;;;31.90;48.00;;;;;;919120;153;27279;-75
2022/06/18 05:47:20;;;;;;;1.57;1.47;;;32.30;47.60;;;;;;919942;150;27452;-76
2022/06/18 05:49:46;;;;;;;1.50;1.40;;;32.80;47.00;;;;;;924413;153;27290;-75
2022/06/18 05:52:13;;;;;;;1.60;1.50;;;33.30;46.30;;;;;;921485;153;27840;-76
2022/06/18 05:54:39;;;;;;;1.67;1.27;;;33.90;45.50;;;;;;925127;152;27300;-75
2022/06/18 05:57:06;;;;;;;1.15;1.15;;;34.30;44.90;;;;;;923666;152;27249;-75
2022/06/18 05:59:33;;;;;;;1.67;1.57;;;34.80;44.20;;;;;;923046;152;27343;-76
2022/06/18 06:01:59;;;;;;;1.72;1.47;;;35.20;43.60;;;;;;922095;153;26179;-76
2022/06/18 06:04:26;;;;;;;1.52;1.42;;;35.70;43.00;;;;;;921773;153;27323;-75
2022/06/18 06:06:52;;;;;;;1.92;1.45;;;36.10;42.70;;;;;;921304;150;27302;-76
2022/06/18 06:12:03;;;;;;;1.60;1.50;;;37.00;41.20;;;;;;922549;152;26689;-76
2022/06/18 06:14:30;;;;;;;1.57;1.42;;;37.40;40.60;;;;;;922887;151;28294;-76
2022/06/18 06:16:57;;;;;;;1.40;1.25;;;37.90;39.80;;;;;;924661;150;27266;-75
2022/06/18 06:19:24;;;;;;;1.42;1.32;;;38.30;39.30;;;;;;899740;155;27577;-76
2022/06/18 06:21:50;;;;;;;1.70;1.50;;;38.60;38.80;;;;;;899019;155;26342;-76
2022/06/18 06:24:16;;;;;;;1.32;1.25;;;38.90;38.00;;;;;;898759;155;26357;-77
2022/06/18 06:26:43;;;;;;;1.30;1.12;;;39.20;37.60;;;;;;899102;155;26337;-77
2022/06/18 06:29:13;;;;;;;1.10;1.07;;;39.50;36.90;;;;;;900001;155;27909;-76
2022/06/18 06:31:39;;;;;;;1.30;1.20;;;39.80;36.50;;;;;;897438;155;26297;-77
2022/06/18 06:34:06;;;;;;;1.42;1.32;;;40.00;35.80;;;;;;899102;155;26273;-77
2022/06/18 06:36:32;;;;;;;1.40;1.30;;;40.20;35.20;;;;;;901181;155;26350;-76
2022/06/18 06:38:59;;;;;;;1.70;1.20;;;40.40;35.10;;;;;;899923;155;27530;-77
2022/06/18 06:41:25;;;;;;;1.30;1.30;;;40.70;34.70;;;;;;901010;155;26345;-77
2022/06/18 06:43:52;;;;;;;1.10;1.10;;;40.90;34.60;;;;;;908452;155;26406;-77
2022/06/18 06:46:19;;;;;;;1.25;1.25;;;41.10;34.40;;;;;;914433;154;26239;-78
2022/06/18 06:48:45;;;;;;;3.92;1.37;;;41.50;34.00;;;;;;921690;153;26436;-78
2022/06/18 06:51:18;;;;;;;1.72;1.07;;;41.90;33.60;;;;;;918079;154;26317;-77
2022/06/18 06:53:44;;;;;;;1.40;1.30;;;42.20;33.10;;;;;;930809;151;26193;-80
2022/06/18 06:58:55;;;;;;;1.00;1.00;;;43.00;32.20;;;;;;928096;152;26253;-80
2022/06/18 07:01:22;;;;;;;1.40;1.30;;;43.30;31.70;;;;;;899329;155;26438;-78
2022/06/18 07:03:49;;;;;;;0.93;0.82;;;43.70;31.30;;;;;;899379;155;26327;-80
2022/06/18 07:06:16;;;;;;;1.25;1.07;;;44.10;30.90;;;;;;900168;155;28534;-80
2022/06/18 07:08:42;;;;;;;0.82;0.82;;;44.50;30.20;;;;;;900824;155;26322;-80
2022/06/18 07:11:08;;;;;;;1.20;1.20;;;44.90;29.70;;;;;;899516;155;26389;-80
2022/06/18 07:13:35;;;;;;;1.12;1.02;;;45.30;29.80;;;;;;899010;155;26420;-79
2022/06/18 07:16:02;;;;;;;0.90;0.90;;;45.60;29.00;;;;;;928552;151;26297;-79
2022/06/18 07:18:31;;;;;;;0.95;0.88;;;45.90;28.60;;;;;;929740;151;26291;-80
2022/06/18 07:21:01;;;;;;;1.20;1.10;;;46.30;27.70;;;;;;926004;152;26312;-79
2022/06/18 07:23:27;;;;;;;1.77;0.88;;;46.50;27.80;;;;;;900214;151;26377;-79
2022/06/18 07:25:54;;;;;;;1.10;1.10;;;46.70;27.60;;;;;;900468;155;26297;-79
2022/06/18 07:28:20;;;;;;;0.90;0.90;;;47.00;27.30;;;;;;900525;155;26423;-79
2022/06/18 07:30:47;;;;;;;1.35;1.25;;;47.20;27.00;;;;;;901261;155;26314;-80
2022/06/18 07:33:14;;;;;;;0.80;0.80;;;47.50;26.80;;;;;;900578;155;26295;-80
2022/06/18 07:35:40;;;;;;;0.90;0.90;;;47.80;26.60;;;;;;900049;155;26294;-80
2022/06/18 07:38:07;;;;;;;1.95;1.20;;;48.00;26.30;;;;;;901184;155;26315;-79
2022/06/18 07:40:51;;;;;;;0.82;0.82;;;48.30;26.10;;;;;;924879;152;26350;-80
2022/06/18 07:43:36;;;;;;;0.82;0.82;;;48.40;25.80;;;;;;918112;153;26282;-80
2022/06/18 07:46:02;;;;;;;0.90;0.90;;;48.70;25.60;;;;;;921428;152;26287;-80
2022/06/18 07:48:29;;;;;;;0.93;0.82;;;48.90;25.30;;;;;;922239;152;26432;-79
2022/06/18 07:50:56;;;;;;;2.12;0.90;;;49.10;25.00;;;;;;919524;153;26231;-80
2022/06/18 07:53:22;;;;;;;0.93;0.90;;;49.20;24.80;;;;;;920143;152;26262;-79
2022/06/18 07:55:49;;;;;;;0.93;0.90;;;49.30;24.70;;;;;;919139;153;26231;-79
2022/06/18 07:58:15;;;;;;;0.78;0.78;;;49.30;24.80;;;;;;920214;153;26207;-80
2022/06/18 08:00:42;;;;;;;0.80;0.80;;;49.50;24.60;;;;;;920393;152;26291;-80
2022/06/18 08:03:09;;;;;;;1.20;1.10;;;49.60;24.30;;;;;;921674;152;26270;-78
2022/06/18 08:05:35;;;;;;;1.65;1.17;;;49.80;24.10;;;;;;920045;152;26197;-79
2022/06/18 08:08:02;;;;;;;1.05;0.80;;;49.80;23.90;;;;;;921360;153;26255;-78
2022/06/18 08:10:28;;;;;;;0.78;0.78;;;50.00;23.80;;;;;;919191;152;26225;-79
2022/06/18 08:12:55;;;;;;;0.90;0.90;;;50.10;23.70;;;;;;921480;152;26312;-79
2022/06/18 08:15:22;;;;;;;0.90;0.90;;;50.30;23.70;;;;;;922939;152;26179;-80
2022/06/18 08:17:48;;;;;;;3.37;0.90;;;50.40;23.60;;;;;;923556;152;26345;-79
2022/06/18 08:20:15;;;;;;;0.93;0.90;;;50.60;23.30;;;;;;921693;152;26172;-78
2022/06/18 08:22:41;;;;;;;0.80;0.80;;;50.80;23.20;;;;;;921918;153;26250;-79
2022/06/18 08:25:08;;;;;;;1.30;0.80;;;50.90;23.20;;;;;;921858;150;26221;-78
2022/06/18 08:27:34;;;;;;;1.02;0.90;;;51.00;23.00;;;;;;920660;152;26214;-78
2022/06/18 08:30:01;;;;;;;1.80;0.80;;;51.20;22.80;;;;;;920113;150;26533;-79
2022/06/18 08:32:28;;;;;;;0.62;0.62;;;51.30;22.70;;;;;;922152;153;26304;-76
2022/06/18 08:34:54;;;;;;;1.45;0.90;;;51.40;22.50;;;;;;921619;150;26302;-79
2022/06/18 08:37:21;;;;;;;1.10;0.75;;;51.50;22.30;;;;;;922646;153;26215;-80
2022/06/18 08:39:47;;;;;;;1.07;0.80;;;51.70;22.20;;;;;;920153;152;26304;-79
2022/06/18 08:42:26;;;;;;;1.12;0.70;;;51.80;22.30;;;;;;922156;152;26207;-79
2022/06/18 08:45:07;;;;;;;0.55;0.55;;;51.90;22.00;;;;;;922965;151;26258;-78
2022/06/18 08:47:52;;;;;;;1.22;0.70;;;52.20;21.90;;;;;;921693;153;26332;-80
2022/06/18 08:50:40;;;;;;;2.08;0.95;;;52.10;21.60;;;;;;923191;150;26789;-80
2022/06/18 08:53:19;;;;;;;1.62;0.90;;;52.20;21.60;;;;;;922797;153;26218;-79
2022/06/18 08:55:45;;;;;;;0.80;0.78;;;52.30;21.50;;;;;;925684;152;26117;-79
2022/06/18 08:58:30;;;;;;;0.70;0.65;;;52.30;21.40;;;;;;926581;153;26368;-79
2022/06/18 09:01:06;;;;;;;1.82;0.98;;;52.40;21.20;;;;;;924637;152;26164;-80
2022/06/18 09:04:09;;;;;;;1.87;0.78;;;52.40;21.20;;;;;;925571;150;26631;-76
2022/06/18 09:06:51;;;;;;;1.00;0.90;;;52.40;21.10;;;;;;924936;152;26158;-77
2022/06/18 09:09:32;;;;;;;0.95;0.88;;;52.40;21.20;;;;;;923084;153;26750;-79
2022/06/18 09:12:11;;;;;;;1.02;0.80;;;52.50;21.30;;;;;;928557;153;26397;-80
2022/06/18 09:14:56;;;;;;;2.98;0.98;;;52.60;21.10;;;;;;925270;151;26186;-77
2022/06/18 09:17:40;;;;;;;0.80;0.80;;;52.70;21.00;;;;;;925508;152;26203;-75
2022/06/18 09:20:19;;;;;;;0.88;0.70;;;52.80;21.00;;;;;;924453;153;26199;-77
2022/06/18 09:22:45;;;;;;;2.05;0.60;;;52.90;20.90;;;;;;926652;153;26232;-77
2022/06/18 09:25:15;;;;;;;0.85;0.85;;;52.90;20.90;;;;;;921193;153;26229;-79
2022/06/18 09:27:44;;;;;;;0.93;0.80;;;52.90;20.70;;;;;;926876;153;26168;-79
2022/06/18 09:30:13;;;;;;;0.70;0.70;;;52.90;20.70;;;;;;920673;152;26171;-80
2022/06/18 09:32:55;;;;;;;1.55;0.68;;;52.90;20.70;;;;;;924804;152;26227;-80
2022/06/18 09:35:27;;;;;;;1.32;0.65;;;52.80;20.60;;;;;;924190;152;26247;-80
2022/06/18 09:37:56;;;;;;;0.95;0.80;;;52.80;20.50;;;;;;913411;153;26217;-79
2022/06/18 09:40:42;;;;;;;0.70;0.70;;;52.70;20.50;;;;;;921960;153;26218;-77
2022/06/18 09:43:11;;;;;;;2.17;0.72;;;52.70;20.60;;;;;;925017;153;26285;-79
2022/06/18 09:45:43;;;;;;;1.00;0.90;;;52.70;20.50;;;;;;918692;153;26327;-79
2022/06/18 09:48:10;;;;;;;2.62;1.00;;;52.60;20.40;;;;;;898487;155;26358;-80
2022/06/18 09:50:42;;;;;;;0.70;0.70;;;52.60;20.50;;;;;;897356;155;26375;-79
2022/06/18 09:53:12;;;;;;;2.80;0.88;;;52.60;20.30;;;;;;902048;155;26310;-75
2022/06/18 09:55:41;;;;;;;1.00;0.70;;;52.50;20.30;;;;;;911142;154;26415;-74
2022/06/18 09:58:08;;;;;;;1.05;0.75;;;52.40;20.00;;;;;;912781;154;26399;-79
2022/06/18 10:00:34;;;;;;;1.90;0.80;;;52.20;20.00;;;;;;913463;152;26346;-80
2022/06/18 10:03:13;;;;;;;2.12;0.95;;;52.00;19.90;;;;;;912161;155;26579;-78
2022/06/18 10:08:30;;;;;;;3.45;0.75;;;51.40;20.00;;;;;;913204;154;26871;-76
2022/06/18 10:11:07;;;;;;;0.80;0.80;;;51.00;20.10;;;;;;910750;154;26471;-79
2022/06/18 10:13:26;;;;;;;2.60;1.20;;;50.70;20.20;;;;;;910428;154;26258;-80
2022/06/18 10:15:52;;;;;;;1.57;0.90;;;50.40;20.40;;;;;;912968;151;26294;-79
2022/06/18 10:18:31;;;;;;;1.65;0.90;;;50.10;20.40;;;;;;909855;154;26206;-78
2022/06/18 10:21:20;;;;;;;0.93;0.88;;;49.70;20.60;;;;;;911882;155;26333;-77
2022/06/18 10:24:09;;;;;;;1.42;1.20;;;49.30;20.60;;;;;;882441;155;26419;-75
2022/06/18 10:26:46;;;;;;;2.60;1.20;;;48.90;20.70;;;;;;910398;151;26390;-75
2022/06/18 10:29:31;;;;;;;1.10;0.98;;;48.40;20.70;;;;;;909767;155;26467;-80
2022/06/18 10:31:58;;;;;;;2.20;1.40;;;48.00;20.90;;;;;;909372;154;26435;-78
2022/06/18 10:34:36;;;;;;;1.77;1.17;;;47.60;21.00;;;;;;913033;151;26310;-79
2022/06/18 10:37:15;;;;;;;1.80;0.88;;;47.20;21.20;;;;;;912979;154;26272;-79
2022/06/18 10:39:53;;;;;;;1.37;1.27;;;46.80;21.30;;;;;;914571;154;26333;-78
2022/06/18 10:42:45;;;;;;;1.27;1.17;;;46.50;21.40;;;;;;903467;154;26673;-80
2022/06/18 10:45:34;;;;;;;1.00;1.00;;;46.10;21.50;;;;;;910429;151;26329;-74
2022/06/18 10:47:59;;;;;;;3.12;1.62;;;45.60;21.60;;;;;;910037;154;26325;-75
2022/06/18 10:50:26;;;;;;;3.15;1.27;;;45.30;21.90;;;;;;914578;153;26425;-79
2022/06/18 10:53:02;;;;;;;3.15;1.10;;;45.00;22.20;;;;;;914904;154;26393;-78
2022/06/18 10:55:28;;;;;;;2.00;1.27;;;44.60;22.40;;;;;;928299;151;26394;-78
2022/06/18 10:57:54;;;;;;;4.42;1.12;;;44.30;22.50;;;;;;932927;151;26232;-79
2022/06/18 11:00:23;;;;;;;2.60;1.20;;;44.10;22.80;;;;;;933050;149;26357;-75
2022/06/18 11:02:48;;;;;;;1.67;1.40;;;43.80;22.80;;;;;;916164;154;26423;-77
2022/06/18 11:05:20;;;;;;;2.37;1.30;;;43.60;23.00;;;;;;932612;151;26353;-79
2022/06/18 11:07:50;;;;;;;3.27;1.60;;;43.30;23.00;;;;;;927877;152;26359;-79
2022/06/18 11:10:22;;;;;;;2.95;1.40;;;43.10;23.00;;;;;;921952;150;26329;-78
2022/06/18 11:12:52;;;;;;;1.50;1.17;;;43.00;23.30;;;;;;922640;150;26292;-77
2022/06/18 11:15:21;;;;;;;1.95;1.20;;;42.70;23.50;;;;;;920359;153;26385;-79
2022/06/18 11:17:48;;;;;;;1.40;1.30;;;42.60;23.60;;;;;;920026;152;26276;-79
2022/06/18 11:20:23;;;;;;;2.92;1.57;;;42.40;23.80;;;;;;922025;153;27859;-78
2022/06/18 11:22:47;;;;;;;2.65;1.40;;;42.30;23.80;;;;;;922042;150;27341;-75
2022/06/18 11:25:25;;;;;;;1.40;1.20;;;42.20;23.90;;;;;;923321;150;26651;-78
2022/06/18 11:27:52;;;;;;;3.65;1.20;;;42.00;23.90;;;;;;921203;153;26552;-79
2022/06/18 11:30:18;;;;;;;2.15;1.35;;;41.90;23.90;;;;;;923298;152;26811;-78
2022/06/18 11:32:45;;;;;;;3.58;1.80;;;41.90;24.50;;;;;;919925;150;26292;-78
2022/06/18 11:35:26;;;;;;;4.40;1.90;;;41.70;24.10;;;;;;922314;152;26197;-76
2022/06/18 11:38:02;;;;;;;2.87;1.60;;;41.60;24.00;;;;;;920916;152;26318;-79
2022/06/18 11:40:28;;;;;;;3.37;1.40;;;41.50;24.30;;;;;;923665;153;26348;-78
2022/06/18 11:43:32;;;;;;;2.42;1.60;;;41.40;24.40;;;;;;925530;152;26389;-77
2022/06/18 11:45:59;;;;;;;1.87;1.70;;;41.30;24.50;;;;;;924402;152;26357;-78
2022/06/18 11:48:40;;;;;;;5.58;2.02;;;41.20;24.30;;;;;;922455;152;27337;-78
2022/06/18 11:51:28;;;;;;;2.75;1.25;;;41.10;24.60;;;;;;922551;153;26313;-74
2022/06/18 11:54:13;;;;;;;9.03;1.90;;;41.00;24.60;;;;;;921329;152;27364;-78
2022/06/18 11:56:55;;;;;;;3.10;1.40;;;41.00;24.50;;;;;;923741;153;26223;-79
2022/06/18 11:59:43;;;;;;;1.62;1.50;;;40.90;24.50;;;;;;922241;153;26249;-79
2022/06/18 12:02:09;;;;;;;3.50;1.60;;;40.90;24.50;;;;;;924961;153;26225;-79
2022/06/18 12:04:38;;;;;;;4.62;2.10;;;40.90;24.50;;;;;;919895;153;26274;-79
2022/06/18 12:07:16;;;;;;;5.70;1.90;;;40.80;24.60;;;;;;924191;152;26249;-78
2022/06/18 12:09:43;;;;;;;3.47;1.60;;;40.80;24.70;;;;;;920130;152;26263;-78
2022/06/18 12:12:24;;;;;;;4.25;1.90;;;40.70;24.80;;;;;;920333;153;26169;-79
2022/06/18 12:14:54;;;;;;;2.65;1.47;;;40.70;24.70;;;;;;923254;153;27348;-76
2022/06/18 12:17:29;;;;;;;3.72;1.82;;;40.60;24.70;;;;;;923199;152;26198;-78
2022/06/18 12:20:17;;;;;;;2.72;1.45;;;40.60;24.80;;;;;;919165;150;26202;-79
2022/06/18 12:22:43;;;;;;;4.33;1.55;;;40.50;24.80;;;;;;926162;152;26191;-80
2022/06/18 12:25:16;;;;;;;3.30;1.80;;;40.50;24.90;;;;;;922790;153;27276;-80
2022/06/18 12:27:42;;;;;;;6.97;1.65;;;40.50;25.00;;;;;;923010;153;26197;-78
2022/06/18 12:30:27;;;;;;;4.08;1.90;;;40.50;25.10;;;;;;921812;151;26221;-75
2022/06/18 12:32:53;;;;;;;2.17;1.35;;;40.50;25.20;;;;;;895987;153;27644;-80
2022/06/18 12:35:41;;;;;;;4.80;1.70;;;40.50;25.20;;;;;;920777;153;26783;-78
2022/06/18 12:38:38;;;;;;;4.78;1.47;;;40.50;25.10;;;;;;923547;153;26137;-78
2022/06/18 12:41:19;;;;;;;4.08;1.80;;;40.50;25.10;;;;;;925494;151;26177;-79
2022/06/18 12:44:20;;;;;;;2.05;1.37;;;40.50;25.10;;;;;;923886;152;26134;-75
2022/06/18 12:46:52;;;;;;;4.83;2.10;;;40.40;25.10;;;;;;922234;153;26631;-78
2022/06/18 12:49:37;;;;;;;3.40;1.55;;;40.40;25.10;;;;;;923493;152;26240;-78
2022/06/18 12:52:22;;;;;;;4.53;1.67;;;40.40;25.10;;;;;;920458;151;26246;-79
2022/06/18 12:54:57;;;;;;;3.40;1.65;;;40.40;25.10;;;;;;917306;153;26305;-77
2022/06/18 12:57:32;;;;;;;4.78;1.65;;;40.40;25.30;;;;;;917241;153;26278;-78
2022/06/18 13:00:14;;;;;;;9.65;1.98;;;40.30;25.30;;;;;;918686;153;26197;-77
2022/06/18 13:03:02;;;;;;;6.53;1.98;;;40.30;25.30;;;;;;916770;154;26250;-78
2022/06/18 13:05:43;;;;;;;4.08;1.90;;;40.30;25.50;;;;;;918174;154;26224;-78
2022/06/18 13:08:16;;;;;;;5.55;2.30;;;40.30;25.20;;;;;;917410;154;26273;-78
2022/06/18 13:10:51;;;;;;;4.17;1.70;;;40.20;25.20;;;;;;892635;156;27394;-79
2022/06/18 13:13:33;;;;;;;5.60;2.02;;;40.20;25.10;;;;;;900174;155;26319;-78
2022/06/18 13:16:14;;;;;;;4.47;1.85;;;40.10;25.10;;;;;;913037;151;26313;-74
2022/06/18 13:18:41;;;;;;;4.28;1.92;;;40.00;25.80;;;;;;910530;155;26316;-78
2022/06/18 13:21:07;;;;;;;5.25;2.15;;;40.00;25.20;;;;;;912636;155;26376;-79